sensor_id;sensor_type;location;lat;lon;timestamp;temperature;humidity
8824;DHT22;4448;50.904;4.694;2023-07-28T00:00:23;18.80;99.90
8824;DHT22;4448;50.904;4.694;2023-07-28T00:02:48;18.80;99.90
8824;DHT22;4448;50.904;4.694;2023-07-28T00:05:14;18.80;99.90
8824;DHT22;4448;50.904;4.694;2023-07-28T00:07:39;18.80;99.90
8824;DHT22;4448;50.904;4.694;2023-07-28T00:10:05;18.80;99.90
8824;DHT22;4448;50.904;4.694;2023-07-28T00:12:31;18.80;99.90
8824;DHT22;4448;50.904;4.694;2023-07-28T00:14:57;18.80;99.90
8824;DHT22;4448;50.904;4.694;2023-07-28T00:17:22;18.80;99.90
8824;DHT22;4448;50.904;4.694;2023-07-28T00:19:48;18.80;99.90
8824;DHT22;4448;50.904;4.694;2023-07-28T00:22:13;18.80;99.90
8824;DHT22;4448;50.904;4.694;2023-07-28T00:24:40;18.80;99.90
8824;DHT22;4448;50.904;4.694;2023-07-28T00:27:06;18.80;99.90
8824;DHT22;4448;50.904;4.694;2023-07-28T00:29:31;18.80;99.90
8824;DHT22;4448;50.904;4.694;2023-07-28T00:31:57;18.80;99.90
8824;DHT22;4448;50.904;4.694;2023-07-28T00:34:23;18.80;99.90
8824;DHT22;4448;50.904;4.694;2023-07-28T00:36:48;18.80;99.90
8824;DHT22;4448;50.904;4.694;2023-07-28T00:39:14;18.60;99.90
8824;DHT22;4448;50.904;4.694;2023-07-28T00:41:40;18.80;99.90
8824;DHT22;4448;50.904;4.694;2023-07-28T00:44:05;18.80;99.90
8824;DHT22;4448;50.904;4.694;2023-07-28T00:46:31;18.80;99.90
8824;DHT22;4448;50.904;4.694;2023-07-28T00:48:57;18.80;99.90
8824;DHT22;4448;50.904;4.694;2023-07-28T00:51:23;18.80;99.90
8824;DHT22;4448;50.904;4.694;2023-07-28T00:53:49;18.80;99.90
8824;DHT22;4448;50.904;4.694;2023-07-28T00:56:15;18.80;99.90
8824;DHT22;4448;50.904;4.694;2023-07-28T00:58:40;18.80;99.90
8824;DHT22;4448;50.904;4.694;2023-07-28T01:01:06;18.80;99.90
8824;DHT22;4448;50.904;4.694;2023-07-28T01:03:32;18.80;99.90
8824;DHT22;4448;50.904;4.694;2023-07-28T01:09:00;18.80;99.90
8824;DHT22;4448;50.904;4.694;2023-07-28T01:11:28;18.80;99.90
8824;DHT22;4448;50.904;4.694;2023-07-28T01:13:53;18.80;99.90
8824;DHT22;4448;50.904;4.694;2023-07-28T01:16:19;18.90;99.90
8824;DHT22;4448;50.904;4.694;2023-07-28T01:18:45;18.80;99.90
8824;DHT22;4448;50.904;4.694;2023-07-28T01:21:26;18.80;99.90
8824;DHT22;4448;50.904;4.694;2023-07-28T01:24:21;18.90;99.90
8824;DHT22;4448;50.904;4.694;2023-07-28T01:26:51;18.90;99.90
8824;DHT22;4448;50.904;4.694;2023-07-28T01:29:18;18.80;99.90
8824;DHT22;4448;50.904;4.694;2023-07-28T01:31:46;18.80;99.90
8824;DHT22;4448;50.904;4.694;2023-07-28T01:34:13;18.80;99.90
8824;DHT22;4448;50.904;4.694;2023-07-28T01:36:38;18.80;99.90
8824;DHT22;4448;50.904;4.694;2023-07-28T01:39:04;18.80;99.90
8824;DHT22;4448;50.904;4.694;2023-07-28T01:41:30;18.80;99.90
8824;DHT22;4448;50.904;4.694;2023-07-28T01:43:55;18.90;99.90
8824;DHT22;4448;50.904;4.694;2023-07-28T01:46:22;18.80;99.90
8824;DHT22;4448;50.904;4.694;2023-07-28T01:48:47;18.90;99.90
8824;DHT22;4448;50.904;4.694;2023-07-28T01:51:13;18.90;99.90
8824;DHT22;4448;50.904;4.694;2023-07-28T01:53:39;18.90;99.90
8824;DHT22;4448;50.904;4.694;2023-07-28T01:56:04;18.90;99.90
8824;DHT22;4448;50.904;4.694;2023-07-28T01:58:30;18.80;99.90
8824;DHT22;4448;50.904;4.694;2023-07-28T02:00:55;18.80;99.90
8824;DHT22;4448;50.904;4.694;2023-07-28T02:03:21;18.80;99.90
8824;DHT22;4448;50.904;4.694;2023-07-28T02:05:47;18.80;99.90
8824;DHT22;4448;50.904;4.694;2023-07-28T02:08:12;18.80;99.90
8824;DHT22;4448;50.904;4.694;2023-07-28T02:10:38;18.80;99.90
8824;DHT22;4448;50.904;4.694;2023-07-28T02:13:03;18.80;99.90
8824;DHT22;4448;50.904;4.694;2023-07-28T02:15:29;18.80;99.90
8824;DHT22;4448;50.904;4.694;2023-07-28T02:17:55;18.80;99.90
8824;DHT22;4448;50.904;4.694;2023-07-28T02:20:20;18.80;99.90
8824;DHT22;4448;50.904;4.694;2023-07-28T02:22:46;18.90;99.90
8824;DHT22;4448;50.904;4.694;2023-07-28T02:25:12;18.80;99.90
8824;DHT22;4448;50.904;4.694;2023-07-28T02:27:38;18.80;99.90
8824;DHT22;4448;50.904;4.694;2023-07-28T02:30:05;18.80;99.90
8824;DHT22;4448;50.904;4.694;2023-07-28T02:32:31;18.80;99.90
8824;DHT22;4448;50.904;4.694;2023-07-28T02:34:57;18.80;99.90
8824;DHT22;4448;50.904;4.694;2023-07-28T02:37:23;18.80;99.90
8824;DHT22;4448;50.904;4.694;2023-07-28T02:39:49;18.90;99.90
8824;DHT22;4448;50.904;4.694;2023-07-28T02:42:15;18.90;99.90
8824;DHT22;4448;50.904;4.694;2023-07-28T02:44:40;18.80;99.90
8824;DHT22;4448;50.904;4.694;2023-07-28T02:47:06;18.90;99.90
8824;DHT22;4448;50.904;4.694;2023-07-28T02:49:32;18.90;99.90
8824;DHT22;4448;50.904;4.694;2023-07-28T02:51:58;18.90;99.90
8824;DHT22;4448;50.904;4.694;2023-07-28T02:54:24;18.80;99.90
8824;DHT22;4448;50.904;4.694;2023-07-28T02:56:50;18.90;99.90
8824;DHT22;4448;50.904;4.694;2023-07-28T02:59:16;18.80;99.90
8824;DHT22;4448;50.904;4.694;2023-07-28T03:01:42;18.90;99.90
8824;DHT22;4448;50.904;4.694;2023-07-28T03:04:07;18.80;99.90
8824;DHT22;4448;50.904;4.694;2023-07-28T03:06:33;18.90;99.90
8824;DHT22;4448;50.904;4.694;2023-07-28T03:08:59;18.90;99.90
8824;DHT22;4448;50.904;4.694;2023-07-28T03:11:25;18.80;99.90
8824;DHT22;4448;50.904;4.694;2023-07-28T03:13:51;18.70;99.90
8824;DHT22;4448;50.904;4.694;2023-07-28T03:16:17;18.80;99.90
8824;DHT22;4448;50.904;4.694;2023-07-28T03:18:43;18.90;99.90
8824;DHT22;4448;50.904;4.694;2023-07-28T03:21:09;18.90;99.90
8824;DHT22;4448;50.904;4.694;2023-07-28T03:23:35;18.90;99.90
8824;DHT22;4448;50.904;4.694;2023-07-28T03:26:01;18.90;99.90
8824;DHT22;4448;50.904;4.694;2023-07-28T03:28:26;18.90;99.90
8824;DHT22;4448;50.904;4.694;2023-07-28T03:30:52;18.90;99.90
8824;DHT22;4448;50.904;4.694;2023-07-28T03:33:18;18.80;99.90
8824;DHT22;4448;50.904;4.694;2023-07-28T03:35:43;18.90;99.90
8824;DHT22;4448;50.904;4.694;2023-07-28T03:38:09;18.90;99.90
8824;DHT22;4448;50.904;4.694;2023-07-28T03:40:35;18.90;99.90
8824;DHT22;4448;50.904;4.694;2023-07-28T03:43:01;18.80;99.90
8824;DHT22;4448;50.904;4.694;2023-07-28T03:45:27;18.60;99.90
8824;DHT22;4448;50.904;4.694;2023-07-28T03:47:52;18.90;99.90
8824;DHT22;4448;50.904;4.694;2023-07-28T03:50:18;18.80;99.90
8824;DHT22;4448;50.904;4.694;2023-07-28T03:52:44;18.80;99.90
8824;DHT22;4448;50.904;4.694;2023-07-28T03:55:09;18.90;99.90
8824;DHT22;4448;50.904;4.694;2023-07-28T03:57:35;18.90;99.90
8824;DHT22;4448;50.904;4.694;2023-07-28T04:00:00;18.80;99.90
8824;DHT22;4448;50.904;4.694;2023-07-28T04:02:26;18.80;99.90
8824;DHT22;4448;50.904;4.694;2023-07-28T04:04:56;18.80;99.90
8824;DHT22;4448;50.904;4.694;2023-07-28T04:07:21;18.90;99.90
8824;DHT22;4448;50.904;4.694;2023-07-28T04:09:47;19.10;99.90
8824;DHT22;4448;50.904;4.694;2023-07-28T04:12:13;18.90;99.90
8824;DHT22;4448;50.904;4.694;2023-07-28T04:14:38;18.90;99.90
8824;DHT22;4448;50.904;4.694;2023-07-28T04:17:04;18.90;99.90
8824;DHT22;4448;50.904;4.694;2023-07-28T04:19:30;19.00;99.90
8824;DHT22;4448;50.904;4.694;2023-07-28T04:22:00;18.90;99.90
8824;DHT22;4448;50.904;4.694;2023-07-28T04:24:26;18.90;99.90
8824;DHT22;4448;50.904;4.694;2023-07-28T04:26:52;18.90;99.90
8824;DHT22;4448;50.904;4.694;2023-07-28T04:29:17;18.90;99.90
8824;DHT22;4448;50.904;4.694;2023-07-28T04:31:43;18.90;99.90
8824;DHT22;4448;50.904;4.694;2023-07-28T04:34:09;18.50;99.90
8824;DHT22;4448;50.904;4.694;2023-07-28T04:36:34;18.90;99.90
8824;DHT22;4448;50.904;4.694;2023-07-28T04:39:00;19.20;99.90
8824;DHT22;4448;50.904;4.694;2023-07-28T04:41:26;18.90;99.90
8824;DHT22;4448;50.904;4.694;2023-07-28T04:43:52;18.90;99.90
8824;DHT22;4448;50.904;4.694;2023-07-28T04:46:18;18.90;99.90
8824;DHT22;4448;50.904;4.694;2023-07-28T04:48:43;18.80;99.90
8824;DHT22;4448;50.904;4.694;2023-07-28T04:51:09;18.80;99.90
8824;DHT22;4448;50.904;4.694;2023-07-28T04:53:34;18.80;99.90
8824;DHT22;4448;50.904;4.694;2023-07-28T04:56:00;18.90;99.90
8824;DHT22;4448;50.904;4.694;2023-07-28T04:58:26;18.90;99.90
8824;DHT22;4448;50.904;4.694;2023-07-28T05:00:51;18.90;99.90
8824;DHT22;4448;50.904;4.694;2023-07-28T05:03:17;18.90;99.90
8824;DHT22;4448;50.904;4.694;2023-07-28T05:05:44;18.90;99.90
8824;DHT22;4448;50.904;4.694;2023-07-28T05:08:10;18.90;99.90
8824;DHT22;4448;50.904;4.694;2023-07-28T05:10:35;18.90;99.90
8824;DHT22;4448;50.904;4.694;2023-07-28T05:13:01;18.90;99.90
8824;DHT22;4448;50.904;4.694;2023-07-28T05:15:28;18.90;99.90
8824;DHT22;4448;50.904;4.694;2023-07-28T05:17:54;18.90;99.90
8824;DHT22;4448;50.904;4.694;2023-07-28T05:20:20;18.90;99.90
8824;DHT22;4448;50.904;4.694;2023-07-28T05:22:45;18.90;99.90
8824;DHT22;4448;50.904;4.694;2023-07-28T05:25:11;18.90;99.90
8824;DHT22;4448;50.904;4.694;2023-07-28T05:27:41;18.90;99.90
8824;DHT22;4448;50.904;4.694;2023-07-28T05:30:07;18.90;99.90
8824;DHT22;4448;50.904;4.694;2023-07-28T05:32:33;19.00;99.90
8824;DHT22;4448;50.904;4.694;2023-07-28T05:34:58;19.00;99.90
8824;DHT22;4448;50.904;4.694;2023-07-28T05:37:27;19.00;99.90
8824;DHT22;4448;50.904;4.694;2023-07-28T05:39:52;18.90;99.90
8824;DHT22;4448;50.904;4.694;2023-07-28T05:42:18;19.00;99.90
8824;DHT22;4448;50.904;4.694;2023-07-28T05:44:43;19.00;99.90
8824;DHT22;4448;50.904;4.694;2023-07-28T05:47:09;19.00;99.90
8824;DHT22;4448;50.904;4.694;2023-07-28T05:49:35;18.80;99.90
8824;DHT22;4448;50.904;4.694;2023-07-28T05:52:00;19.10;99.90
8824;DHT22;4448;50.904;4.694;2023-07-28T05:54:26;19.10;99.90
8824;DHT22;4448;50.904;4.694;2023-07-28T05:56:51;19.20;99.90
8824;DHT22;4448;50.904;4.694;2023-07-28T05:59:18;19.00;99.90
8824;DHT22;4448;50.904;4.694;2023-07-28T06:01:45;19.10;99.90
8824;DHT22;4448;50.904;4.694;2023-07-28T06:04:10;19.10;99.90
8824;DHT22;4448;50.904;4.694;2023-07-28T06:06:39;19.10;99.90
8824;DHT22;4448;50.904;4.694;2023-07-28T06:09:04;19.10;99.90
8824;DHT22;4448;50.904;4.694;2023-07-28T06:11:30;19.10;99.90
8824;DHT22;4448;50.904;4.694;2023-07-28T06:13:55;19.20;99.90
8824;DHT22;4448;50.904;4.694;2023-07-28T06:16:22;19.20;99.90
8824;DHT22;4448;50.904;4.694;2023-07-28T06:18:48;19.30;99.90
8824;DHT22;4448;50.904;4.694;2023-07-28T06:21:13;19.20;99.90
8824;DHT22;4448;50.904;4.694;2023-07-28T06:23:39;19.30;99.90
8824;DHT22;4448;50.904;4.694;2023-07-28T06:26:05;19.20;99.90
8824;DHT22;4448;50.904;4.694;2023-07-28T06:28:30;18.80;99.90
8824;DHT22;4448;50.904;4.694;2023-07-28T06:30:57;19.30;99.90
8824;DHT22;4448;50.904;4.694;2023-07-28T06:33:24;19.30;99.90
8824;DHT22;4448;50.904;4.694;2023-07-28T06:35:49;19.30;99.90
8824;DHT22;4448;50.904;4.694;2023-07-28T06:38:15;19.30;99.90
8824;DHT22;4448;50.904;4.694;2023-07-28T06:40:41;19.30;99.90
8824;DHT22;4448;50.904;4.694;2023-07-28T06:43:06;19.30;99.90
8824;DHT22;4448;50.904;4.694;2023-07-28T06:45:33;19.30;99.90
8824;DHT22;4448;50.904;4.694;2023-07-28T06:47:59;19.30;99.90
8824;DHT22;4448;50.904;4.694;2023-07-28T06:50:24;19.30;99.90
8824;DHT22;4448;50.904;4.694;2023-07-28T06:52:50;19.30;99.90
8824;DHT22;4448;50.904;4.694;2023-07-28T06:55:16;19.40;99.90
8824;DHT22;4448;50.904;4.694;2023-07-28T06:57:42;19.40;99.90
8824;DHT22;4448;50.904;4.694;2023-07-28T07:00:08;19.60;99.90
8824;DHT22;4448;50.904;4.694;2023-07-28T07:02:35;19.40;99.90
8824;DHT22;4448;50.904;4.694;2023-07-28T07:05:01;19.30;99.90
8824;DHT22;4448;50.904;4.694;2023-07-28T07:07:27;19.50;99.90
8824;DHT22;4448;50.904;4.694;2023-07-28T07:09:52;19.40;99.90
8824;DHT22;4448;50.904;4.694;2023-07-28T07:12:18;19.40;99.90
8824;DHT22;4448;50.904;4.694;2023-07-28T07:14:45;19.50;99.90
8824;DHT22;4448;50.904;4.694;2023-07-28T07:17:10;19.50;99.90
8824;DHT22;4448;50.904;4.694;2023-07-28T07:19:36;19.50;99.90
8824;DHT22;4448;50.904;4.694;2023-07-28T07:22:02;19.50;99.90
8824;DHT22;4448;50.904;4.694;2023-07-28T07:24:28;19.50;99.90
8824;DHT22;4448;50.904;4.694;2023-07-28T07:26:54;19.50;99.90
8824;DHT22;4448;50.904;4.694;2023-07-28T07:29:19;19.60;99.90
8824;DHT22;4448;50.904;4.694;2023-07-28T07:31:45;19.60;99.90
8824;DHT22;4448;50.904;4.694;2023-07-28T07:34:11;19.70;99.90
8824;DHT22;4448;50.904;4.694;2023-07-28T07:36:37;19.70;99.90
8824;DHT22;4448;50.904;4.694;2023-07-28T07:39:02;19.70;99.90
8824;DHT22;4448;50.904;4.694;2023-07-28T07:41:30;19.80;99.90
8824;DHT22;4448;50.904;4.694;2023-07-28T07:43:56;19.80;99.90
8824;DHT22;4448;50.904;4.694;2023-07-28T07:46:22;19.30;99.90
8824;DHT22;4448;50.904;4.694;2023-07-28T07:48:48;19.80;99.90
8824;DHT22;4448;50.904;4.694;2023-07-28T07:51:15;19.80;99.90
8824;DHT22;4448;50.904;4.694;2023-07-28T07:53:40;19.90;99.90
8824;DHT22;4448;50.904;4.694;2023-07-28T07:56:07;19.90;99.90
8824;DHT22;4448;50.904;4.694;2023-07-28T07:58:33;19.90;99.90
8824;DHT22;4448;50.904;4.694;2023-07-28T08:00:59;20.70;99.90
8824;DHT22;4448;50.904;4.694;2023-07-28T08:03:25;20.00;99.90
8824;DHT22;4448;50.904;4.694;2023-07-28T08:05:51;20.00;99.90
8824;DHT22;4448;50.904;4.694;2023-07-28T08:08:17;20.10;99.90
8824;DHT22;4448;50.904;4.694;2023-07-28T08:10:45;20.10;99.90
8824;DHT22;4448;50.904;4.694;2023-07-28T08:13:11;20.10;99.90
8824;DHT22;4448;50.904;4.694;2023-07-28T08:15:36;20.10;99.90
8824;DHT22;4448;50.904;4.694;2023-07-28T08:18:02;20.20;99.90
8824;DHT22;4448;50.904;4.694;2023-07-28T08:20:28;20.50;99.90
8824;DHT22;4448;50.904;4.694;2023-07-28T08:22:53;20.50;99.90
8824;DHT22;4448;50.904;4.694;2023-07-28T08:25:19;20.90;99.90
8824;DHT22;4448;50.904;4.694;2023-07-28T08:27:45;20.30;99.90
8824;DHT22;4448;50.904;4.694;2023-07-28T08:30:11;20.30;99.90
8824;DHT22;4448;50.904;4.694;2023-07-28T08:32:36;20.30;99.90
8824;DHT22;4448;50.904;4.694;2023-07-28T08:35:03;21.00;99.90
8824;DHT22;4448;50.904;4.694;2023-07-28T08:37:29;20.30;99.90
8824;DHT22;4448;50.904;4.694;2023-07-28T08:39:54;20.50;99.90
8824;DHT22;4448;50.904;4.694;2023-07-28T08:42:21;20.50;99.90
8824;DHT22;4448;50.904;4.694;2023-07-28T08:44:50;20.40;99.90
8824;DHT22;4448;50.904;4.694;2023-07-28T08:47:18;20.60;99.90
8824;DHT22;4448;50.904;4.694;2023-07-28T08:49:44;20.60;99.90
8824;DHT22;4448;50.904;4.694;2023-07-28T08:52:10;20.60;99.90
8824;DHT22;4448;50.904;4.694;2023-07-28T08:54:36;20.60;99.90
8824;DHT22;4448;50.904;4.694;2023-07-28T08:57:02;20.70;99.90
8824;DHT22;4448;50.904;4.694;2023-07-28T08:59:29;20.70;99.90
8824;DHT22;4448;50.904;4.694;2023-07-28T09:01:56;20.80;99.90
8824;DHT22;4448;50.904;4.694;2023-07-28T09:04:24;20.40;99.90
8824;DHT22;4448;50.904;4.694;2023-07-28T09:06:58;20.80;99.90
8824;DHT22;4448;50.904;4.694;2023-07-28T09:09:31;20.90;99.90
8824;DHT22;4448;50.904;4.694;2023-07-28T09:11:58;21.40;99.90
8824;DHT22;4448;50.904;4.694;2023-07-28T09:14:24;21.00;99.90
8824;DHT22;4448;50.904;4.694;2023-07-28T09:16:50;21.10;99.90
8824;DHT22;4448;50.904;4.694;2023-07-28T09:19:16;21.10;99.90
8824;DHT22;4448;50.904;4.694;2023-07-28T09:21:43;20.80;99.90
8824;DHT22;4448;50.904;4.694;2023-07-28T09:24:11;21.20;99.90
8824;DHT22;4448;50.904;4.694;2023-07-28T09:29:20;21.10;99.90
8824;DHT22;4448;50.904;4.694;2023-07-28T09:31:47;21.50;99.90
8824;DHT22;4448;50.904;4.694;2023-07-28T09:34:23;21.20;99.90
8824;DHT22;4448;50.904;4.694;2023-07-28T09:36:49;21.20;99.90
8824;DHT22;4448;50.904;4.694;2023-07-28T09:39:15;21.20;99.90
8824;DHT22;4448;50.904;4.694;2023-07-28T09:41:43;21.10;99.90
8824;DHT22;4448;50.904;4.694;2023-07-28T09:44:10;21.00;99.90
8824;DHT22;4448;50.904;4.694;2023-07-28T09:46:35;21.20;99.90
8824;DHT22;4448;50.904;4.694;2023-07-28T09:49:05;21.00;99.90
8824;DHT22;4448;50.904;4.694;2023-07-28T09:51:31;21.10;99.90
8824;DHT22;4448;50.904;4.694;2023-07-28T09:54:12;21.00;99.90
8824;DHT22;4448;50.904;4.694;2023-07-28T09:56:38;21.90;99.90
8824;DHT22;4448;50.904;4.694;2023-07-28T09:59:13;21.10;99.90
8824;DHT22;4448;50.904;4.694;2023-07-28T10:01:43;21.00;99.90
8824;DHT22;4448;50.904;4.694;2023-07-28T10:04:10;21.20;99.90
8824;DHT22;4448;50.904;4.694;2023-07-28T10:06:36;21.10;99.90
8824;DHT22;4448;50.904;4.694;2023-07-28T10:09:04;21.10;99.90
8824;DHT22;4448;50.904;4.694;2023-07-28T10:13:57;21.10;99.90
8824;DHT22;4448;50.904;4.694;2023-07-28T10:16:31;21.10;99.90
8824;DHT22;4448;50.904;4.694;2023-07-28T10:19:03;21.00;99.90
8824;DHT22;4448;50.904;4.694;2023-07-28T10:21:28;21.10;99.90
8824;DHT22;4448;50.904;4.694;2023-07-28T10:24:00;21.10;99.90
8824;DHT22;4448;50.904;4.694;2023-07-28T10:26:38;21.30;99.90
8824;DHT22;4448;50.904;4.694;2023-07-28T10:29:14;21.30;99.90
8824;DHT22;4448;50.904;4.694;2023-07-28T10:32:09;21.40;99.90
8824;DHT22;4448;50.904;4.694;2023-07-28T10:35:06;21.50;99.90
8824;DHT22;4448;50.904;4.694;2023-07-28T10:37:32;21.60;99.90
8824;DHT22;4448;50.904;4.694;2023-07-28T10:42:50;21.70;99.90
8824;DHT22;4448;50.904;4.694;2023-07-28T10:45:16;21.70;99.90
8824;DHT22;4448;50.904;4.694;2023-07-28T10:47:42;21.80;99.90
8824;DHT22;4448;50.904;4.694;2023-07-28T10:50:09;21.70;99.90
8824;DHT22;4448;50.904;4.694;2023-07-28T10:52:39;21.80;99.90
8824;DHT22;4448;50.904;4.694;2023-07-28T10:55:05;21.80;99.90
8824;DHT22;4448;50.904;4.694;2023-07-28T10:57:36;21.90;99.90
8824;DHT22;4448;50.904;4.694;2023-07-28T11:00:02;21.90;99.90
8824;DHT22;4448;50.904;4.694;2023-07-28T11:02:28;21.90;99.90
8824;DHT22;4448;50.904;4.694;2023-07-28T11:04:54;21.90;99.90
8824;DHT22;4448;50.904;4.694;2023-07-28T11:07:20;21.90;99.90
8824;DHT22;4448;50.904;4.694;2023-07-28T11:09:46;21.90;99.90
8824;DHT22;4448;50.904;4.694;2023-07-28T11:12:11;22.00;99.90
8824;DHT22;4448;50.904;4.694;2023-07-28T11:14:37;22.00;99.90
8824;DHT22;4448;50.904;4.694;2023-07-28T11:17:05;22.20;99.90
8824;DHT22;4448;50.904;4.694;2023-07-28T11:19:31;22.30;99.90
8824;DHT22;4448;50.904;4.694;2023-07-28T11:21:58;22.30;99.90
8824;DHT22;4448;50.904;4.694;2023-07-28T11:24:24;22.30;99.90
8824;DHT22;4448;50.904;4.694;2023-07-28T11:26:51;22.30;99.90
8824;DHT22;4448;50.904;4.694;2023-07-28T11:29:18;22.30;99.90
8824;DHT22;4448;50.904;4.694;2023-07-28T11:31:44;21.90;99.90
8824;DHT22;4448;50.904;4.694;2023-07-28T11:34:14;22.30;99.90
8824;DHT22;4448;50.904;4.694;2023-07-28T11:36:41;22.30;99.90
8824;DHT22;4448;50.904;4.694;2023-07-28T11:39:07;22.30;99.90
8824;DHT22;4448;50.904;4.694;2023-07-28T11:41:33;22.80;99.90
8824;DHT22;4448;50.904;4.694;2023-07-28T11:44:00;22.10;99.90
8824;DHT22;4448;50.904;4.694;2023-07-28T11:46:40;22.90;99.90
8824;DHT22;4448;50.904;4.694;2023-07-28T11:51:38;22.00;99.90
8824;DHT22;4448;50.904;4.694;2023-07-28T11:54:05;22.30;99.90
8824;DHT22;4448;50.904;4.694;2023-07-28T11:56:31;22.50;99.90
8824;DHT22;4448;50.904;4.694;2023-07-28T11:58:57;22.50;99.90
8824;DHT22;4448;50.904;4.694;2023-07-28T12:01:23;22.50;99.90
8824;DHT22;4448;50.904;4.694;2023-07-28T12:03:49;22.60;99.90
8824;DHT22;4448;50.904;4.694;2023-07-28T12:06:14;22.60;99.90
8824;DHT22;4448;50.904;4.694;2023-07-28T12:08:40;22.40;99.90
8824;DHT22;4448;50.904;4.694;2023-07-28T12:11:15;22.80;99.90
8824;DHT22;4448;50.904;4.694;2023-07-28T12:13:51;22.90;99.90
8824;DHT22;4448;50.904;4.694;2023-07-28T12:16:40;23.00;99.90
8824;DHT22;4448;50.904;4.694;2023-07-28T12:19:09;22.70;99.90
8824;DHT22;4448;50.904;4.694;2023-07-28T12:21:35;22.90;99.90
8824;DHT22;4448;50.904;4.694;2023-07-28T12:24:01;22.90;99.90
8824;DHT22;4448;50.904;4.694;2023-07-28T12:26:26;23.00;99.90
8824;DHT22;4448;50.904;4.694;2023-07-28T12:28:52;23.10;99.90
8824;DHT22;4448;50.904;4.694;2023-07-28T12:31:17;23.20;99.90
8824;DHT22;4448;50.904;4.694;2023-07-28T12:33:43;23.20;99.90
8824;DHT22;4448;50.904;4.694;2023-07-28T12:36:08;23.60;99.90
8824;DHT22;4448;50.904;4.694;2023-07-28T12:38:35;23.60;99.90
8824;DHT22;4448;50.904;4.694;2023-07-28T12:41:00;23.70;99.90
8824;DHT22;4448;50.904;4.694;2023-07-28T12:43:26;24.80;99.90
8824;DHT22;4448;50.904;4.694;2023-07-28T12:45:52;24.10;99.90
8824;DHT22;4448;50.904;4.694;2023-07-28T12:48:18;24.00;99.90
8824;DHT22;4448;50.904;4.694;2023-07-28T12:50:44;24.30;99.90
8824;DHT22;4448;50.904;4.694;2023-07-28T12:53:10;23.90;99.90
8824;DHT22;4448;50.904;4.694;2023-07-28T12:55:35;23.90;99.90
8824;DHT22;4448;50.904;4.694;2023-07-28T12:58:02;24.00;99.90
8824;DHT22;4448;50.904;4.694;2023-07-28T13:00:28;23.90;99.90
8824;DHT22;4448;50.904;4.694;2023-07-28T13:02:54;23.90;99.90
8824;DHT22;4448;50.904;4.694;2023-07-28T13:05:19;23.90;99.90
8824;DHT22;4448;50.904;4.694;2023-07-28T13:07:45;23.80;99.90
8824;DHT22;4448;50.904;4.694;2023-07-28T13:10:11;23.70;99.90
8824;DHT22;4448;50.904;4.694;2023-07-28T13:12:37;24.00;99.90
8824;DHT22;4448;50.904;4.694;2023-07-28T13:15:03;23.90;99.90
8824;DHT22;4448;50.904;4.694;2023-07-28T13:17:29;23.80;99.90
8824;DHT22;4448;50.904;4.694;2023-07-28T13:19:55;23.90;99.90
8824;DHT22;4448;50.904;4.694;2023-07-28T13:22:23;23.90;99.90
8824;DHT22;4448;50.904;4.694;2023-07-28T13:24:48;24.30;99.90
8824;DHT22;4448;50.904;4.694;2023-07-28T13:27:14;24.20;99.90
8824;DHT22;4448;50.904;4.694;2023-07-28T13:29:40;24.30;99.90
8824;DHT22;4448;50.904;4.694;2023-07-28T13:32:24;24.30;99.90
8824;DHT22;4448;50.904;4.694;2023-07-28T13:34:50;24.40;99.90
8824;DHT22;4448;50.904;4.694;2023-07-28T13:37:17;24.30;99.90
8824;DHT22;4448;50.904;4.694;2023-07-28T13:39:43;24.10;99.90
8824;DHT22;4448;50.904;4.694;2023-07-28T13:42:09;24.20;99.90
8824;DHT22;4448;50.904;4.694;2023-07-28T13:44:34;23.90;99.90
8824;DHT22;4448;50.904;4.694;2023-07-28T13:47:00;24.30;99.90
8824;DHT22;4448;50.904;4.694;2023-07-28T13:49:26;24.20;99.90
8824;DHT22;4448;50.904;4.694;2023-07-28T13:51:52;24.20;99.90
8824;DHT22;4448;50.904;4.694;2023-07-28T13:54:17;24.20;99.90
8824;DHT22;4448;50.904;4.694;2023-07-28T13:56:43;24.20;99.90
8824;DHT22;4448;50.904;4.694;2023-07-28T13:59:09;24.00;99.90
8824;DHT22;4448;50.904;4.694;2023-07-28T14:01:35;24.10;99.90
8824;DHT22;4448;50.904;4.694;2023-07-28T14:04:00;23.80;99.90
8824;DHT22;4448;50.904;4.694;2023-07-28T14:06:26;24.10;99.90
8824;DHT22;4448;50.904;4.694;2023-07-28T14:08:51;24.00;99.90
8824;DHT22;4448;50.904;4.694;2023-07-28T14:11:17;23.80;99.90
8824;DHT22;4448;50.904;4.694;2023-07-28T14:13:43;24.00;99.90
8824;DHT22;4448;50.904;4.694;2023-07-28T14:16:08;24.10;99.90
8824;DHT22;4448;50.904;4.694;2023-07-28T14:18:35;23.90;99.90
8824;DHT22;4448;50.904;4.694;2023-07-28T14:21:01;23.90;99.90
8824;DHT22;4448;50.904;4.694;2023-07-28T14:23:27;24.10;99.90
8824;DHT22;4448;50.904;4.694;2023-07-28T14:25:53;24.00;99.90
8824;DHT22;4448;50.904;4.694;2023-07-28T14:28:21;24.10;99.90
8824;DHT22;4448;50.904;4.694;2023-07-28T14:30:47;23.90;99.90
8824;DHT22;4448;50.904;4.694;2023-07-28T14:33:17;24.10;99.90
8824;DHT22;4448;50.904;4.694;2023-07-28T14:35:44;24.30;99.90
8824;DHT22;4448;50.904;4.694;2023-07-28T14:38:11;24.20;99.90
8824;DHT22;4448;50.904;4.694;2023-07-28T14:40:37;24.20;99.90
8824;DHT22;4448;50.904;4.694;2023-07-28T14:43:03;24.30;99.90
8824;DHT22;4448;50.904;4.694;2023-07-28T14:45:30;24.20;99.90
8824;DHT22;4448;50.904;4.694;2023-07-28T14:47:55;24.70;99.90
8824;DHT22;4448;50.904;4.694;2023-07-28T14:50:21;24.20;99.90
8824;DHT22;4448;50.904;4.694;2023-07-28T14:52:48;24.20;99.90
8824;DHT22;4448;50.904;4.694;2023-07-28T14:55:14;24.40;99.90
8824;DHT22;4448;50.904;4.694;2023-07-28T14:57:39;24.30;99.90
8824;DHT22;4448;50.904;4.694;2023-07-28T15:00:05;24.40;99.90
8824;DHT22;4448;50.904;4.694;2023-07-28T15:02:33;24.30;99.90
8824;DHT22;4448;50.904;4.694;2023-07-28T15:04:59;24.40;99.90
8824;DHT22;4448;50.904;4.694;2023-07-28T15:07:24;24.30;99.90
8824;DHT22;4448;50.904;4.694;2023-07-28T15:09:50;24.70;99.90
8824;DHT22;4448;50.904;4.694;2023-07-28T15:12:17;24.30;99.90
8824;DHT22;4448;50.904;4.694;2023-07-28T15:14:42;24.00;99.90
8824;DHT22;4448;50.904;4.694;2023-07-28T15:17:08;24.70;99.90
8824;DHT22;4448;50.904;4.694;2023-07-28T15:19:34;24.30;99.90
8824;DHT22;4448;50.904;4.694;2023-07-28T15:21:59;24.40;99.90
8824;DHT22;4448;50.904;4.694;2023-07-28T15:24:25;24.30;99.90
8824;DHT22;4448;50.904;4.694;2023-07-28T15:26:50;24.20;99.90
8824;DHT22;4448;50.904;4.694;2023-07-28T15:29:18;23.40;99.90
8824;DHT22;4448;50.904;4.694;2023-07-28T15:31:44;24.20;99.90
8824;DHT22;4448;50.904;4.694;2023-07-28T15:34:09;24.30;99.90
8824;DHT22;4448;50.904;4.694;2023-07-28T15:36:35;24.30;99.90
8824;DHT22;4448;50.904;4.694;2023-07-28T15:39:01;24.20;99.90
8824;DHT22;4448;50.904;4.694;2023-07-28T15:41:26;24.00;99.90
8824;DHT22;4448;50.904;4.694;2023-07-28T15:43:52;24.30;99.90
8824;DHT22;4448;50.904;4.694;2023-07-28T15:46:17;24.00;99.90
8824;DHT22;4448;50.904;4.694;2023-07-28T15:51:12;24.20;99.90
8824;DHT22;4448;50.904;4.694;2023-07-28T15:53:37;24.20;99.90
8824;DHT22;4448;50.904;4.694;2023-07-28T15:56:03;24.20;99.90
8824;DHT22;4448;50.904;4.694;2023-07-28T15:58:29;24.70;99.90
8824;DHT22;4448;50.904;4.694;2023-07-28T16:00:54;23.50;99.90
8824;DHT22;4448;50.904;4.694;2023-07-28T16:03:20;24.20;99.90
8824;DHT22;4448;50.904;4.694;2023-07-28T16:05:46;24.60;99.90
8824;DHT22;4448;50.904;4.694;2023-07-28T16:08:11;24.10;99.90
8824;DHT22;4448;50.904;4.694;2023-07-28T16:10:37;24.10;99.90
8824;DHT22;4448;50.904;4.694;2023-07-28T16:13:03;24.20;99.90